sensor_id;sensor_type;location;lat;lon;timestamp;P1;durP1;ratioP1;P2;durP2;ratioP2
62957;SDS011;49056;48.352;10.926;2024-02-14T00:01:54;2.35;;;1.15;;
62957;SDS011;49056;48.352;10.926;2024-02-14T00:07:14;2.12;;;1.10;;
62957;SDS011;49056;48.352;10.926;2024-02-14T00:12:35;2.25;;;1.20;;
62957;SDS011;49056;48.352;10.926;2024-02-14T00:17:55;2.37;;;1.40;;
62957;SDS011;49056;48.352;10.926;2024-02-14T00:23:16;1.70;;;0.88;;
62957;SDS011;49056;48.352;10.926;2024-02-14T00:28:36;2.05;;;1.15;;
62957;SDS011;49056;48.352;10.926;2024-02-14T00:33:56;2.75;;;1.30;;
62957;SDS011;49056;48.352;10.926;2024-02-14T00:39:16;2.40;;;1.20;;
62957;SDS011;49056;48.352;10.926;2024-02-14T00:44:37;1.70;;;1.20;;
62957;SDS011;49056;48.352;10.926;2024-02-14T00:49:57;2.33;;;1.23;;
62957;SDS011;49056;48.352;10.926;2024-02-14T00:55:17;3.40;;;1.70;;
62957;SDS011;49056;48.352;10.926;2024-02-14T01:00:38;2.28;;;1.30;;
62957;SDS011;49056;48.352;10.926;2024-02-14T01:05:58;2.30;;;0.93;;
62957;SDS011;49056;48.352;10.926;2024-02-14T01:11:18;4.03;;;1.30;;
62957;SDS011;49056;48.352;10.926;2024-02-14T01:16:42;1.97;;;0.90;;
62957;SDS011;49056;48.352;10.926;2024-02-14T01:22:03;1.60;;;0.85;;
62957;SDS011;49056;48.352;10.926;2024-02-14T01:27:24;1.33;;;0.85;;
62957;SDS011;49056;48.352;10.926;2024-02-14T01:32:44;2.00;;;1.20;;
62957;SDS011;49056;48.352;10.926;2024-02-14T01:38:05;2.73;;;1.53;;
62957;SDS011;49056;48.352;10.926;2024-02-14T01:43:26;1.17;;;0.68;;
62957;SDS011;49056;48.352;10.926;2024-02-14T01:48:46;2.13;;;1.20;;
62957;SDS011;49056;48.352;10.926;2024-02-14T01:54:06;1.03;;;0.60;;
62957;SDS011;49056;48.352;10.926;2024-02-14T01:59:27;2.43;;;1.00;;
62957;SDS011;49056;48.352;10.926;2024-02-14T02:04:47;2.75;;;0.82;;
62957;SDS011;49056;48.352;10.926;2024-02-14T02:10:08;1.00;;;0.73;;
62957;SDS011;49056;48.352;10.926;2024-02-14T02:15:29;2.67;;;1.40;;
62957;SDS011;49056;48.352;10.926;2024-02-14T02:20:49;3.87;;;1.27;;
62957;SDS011;49056;48.352;10.926;2024-02-14T02:26:10;1.80;;;1.00;;
62957;SDS011;49056;48.352;10.926;2024-02-14T02:31:31;1.80;;;0.95;;
62957;SDS011;49056;48.352;10.926;2024-02-14T02:36:51;2.20;;;0.90;;
62957;SDS011;49056;48.352;10.926;2024-02-14T02:42:11;1.75;;;1.20;;
62957;SDS011;49056;48.352;10.926;2024-02-14T02:47:32;1.57;;;1.10;;
62957;SDS011;49056;48.352;10.926;2024-02-14T02:52:52;2.03;;;0.90;;
62957;SDS011;49056;48.352;10.926;2024-02-14T02:58:13;2.95;;;1.20;;
62957;SDS011;49056;48.352;10.926;2024-02-14T03:03:35;2.12;;;0.60;;
62957;SDS011;49056;48.352;10.926;2024-02-14T03:08:56;2.50;;;1.02;;
62957;SDS011;49056;48.352;10.926;2024-02-14T03:14:17;2.05;;;0.75;;
62957;SDS011;49056;48.352;10.926;2024-02-14T03:19:37;2.58;;;1.10;;
62957;SDS011;49056;48.352;10.926;2024-02-14T03:24:59;1.60;;;0.80;;
62957;SDS011;49056;48.352;10.926;2024-02-14T03:30:19;0.95;;;0.60;;
62957;SDS011;49056;48.352;10.926;2024-02-14T03:35:40;1.62;;;0.60;;
62957;SDS011;49056;48.352;10.926;2024-02-14T03:41:01;1.30;;;0.60;;
62957;SDS011;49056;48.352;10.926;2024-02-14T03:46:21;2.70;;;0.95;;
62957;SDS011;49056;48.352;10.926;2024-02-14T03:51:41;2.20;;;0.93;;
62957;SDS011;49056;48.352;10.926;2024-02-14T03:57:02;0.62;;;0.60;;
62957;SDS011;49056;48.352;10.926;2024-02-14T04:02:22;0.98;;;0.88;;
62957;SDS011;49056;48.352;10.926;2024-02-14T04:07:48;1.02;;;0.70;;
62957;SDS011;49056;48.352;10.926;2024-02-14T04:13:12;1.20;;;0.60;;
62957;SDS011;49056;48.352;10.926;2024-02-14T04:18:32;0.65;;;0.50;;
62957;SDS011;49056;48.352;10.926;2024-02-14T04:23:52;0.97;;;0.60;;
62957;SDS011;49056;48.352;10.926;2024-02-14T04:29:13;1.85;;;0.70;;
62957;SDS011;49056;48.352;10.926;2024-02-14T04:34:33;0.43;;;0.40;;
62957;SDS011;49056;48.352;10.926;2024-02-14T04:39:53;0.85;;;0.65;;
62957;SDS011;49056;48.352;10.926;2024-02-14T04:45:14;1.00;;;0.50;;
62957;SDS011;49056;48.352;10.926;2024-02-14T04:50:34;0.87;;;0.50;;
62957;SDS011;49056;48.352;10.926;2024-02-14T04:55:55;0.30;;;0.30;;
62957;SDS011;49056;48.352;10.926;2024-02-14T05:01:15;1.37;;;0.68;;
62957;SDS011;49056;48.352;10.926;2024-02-14T05:06:36;1.10;;;0.50;;
62957;SDS011;49056;48.352;10.926;2024-02-14T05:11:56;1.35;;;0.52;;
62957;SDS011;49056;48.352;10.926;2024-02-14T05:17:16;0.50;;;0.50;;
62957;SDS011;49056;48.352;10.926;2024-02-14T05:22:37;2.60;;;0.50;;
62957;SDS011;49056;48.352;10.926;2024-02-14T05:27:58;1.12;;;0.50;;
62957;SDS011;49056;48.352;10.926;2024-02-14T05:33:18;0.65;;;0.55;;
62957;SDS011;49056;48.352;10.926;2024-02-14T05:38:42;1.35;;;0.45;;
62957;SDS011;49056;48.352;10.926;2024-02-14T05:44:02;0.45;;;0.40;;
62957;SDS011;49056;48.352;10.926;2024-02-14T05:49:22;1.37;;;0.50;;
62957;SDS011;49056;48.352;10.926;2024-02-14T05:54:44;1.17;;;0.60;;
62957;SDS011;49056;48.352;10.926;2024-02-14T06:00:05;0.43;;;0.30;;
62957;SDS011;49056;48.352;10.926;2024-02-14T06:05:25;0.55;;;0.32;;
62957;SDS011;49056;48.352;10.926;2024-02-14T06:10:46;0.73;;;0.32;;
62957;SDS011;49056;48.352;10.926;2024-02-14T06:16:06;0.65;;;0.40;;
62957;SDS011;49056;48.352;10.926;2024-02-14T06:21:28;0.52;;;0.30;;
62957;SDS011;49056;48.352;10.926;2024-02-14T06:26:48;1.25;;;0.40;;
62957;SDS011;49056;48.352;10.926;2024-02-14T06:32:10;0.30;;;0.20;;
62957;SDS011;49056;48.352;10.926;2024-02-14T06:37:30;0.57;;;0.30;;
62957;SDS011;49056;48.352;10.926;2024-02-14T06:42:51;1.00;;;0.30;;
62957;SDS011;49056;48.352;10.926;2024-02-14T06:48:11;0.30;;;0.20;;
62957;SDS011;49056;48.352;10.926;2024-02-14T06:53:31;0.43;;;0.30;;
62957;SDS011;49056;48.352;10.926;2024-02-14T06:58:52;1.08;;;0.52;;
62957;SDS011;49056;48.352;10.926;2024-02-14T07:04:19;0.37;;;0.37;;
62957;SDS011;49056;48.352;10.926;2024-02-14T07:09:45;0.68;;;0.30;;
62957;SDS011;49056;48.352;10.926;2024-02-14T07:15:06;0.62;;;0.37;;
62957;SDS011;49056;48.352;10.926;2024-02-14T07:20:26;0.60;;;0.25;;
62957;SDS011;49056;48.352;10.926;2024-02-14T07:25:46;0.57;;;0.37;;
62957;SDS011;49056;48.352;10.926;2024-02-14T07:31:07;0.47;;;0.23;;
62957;SDS011;49056;48.352;10.926;2024-02-14T07:36:27;0.45;;;0.20;;
62957;SDS011;49056;48.352;10.926;2024-02-14T07:41:47;1.30;;;0.60;;
62957;SDS011;49056;48.352;10.926;2024-02-14T07:47:08;1.13;;;0.40;;
62957;SDS011;49056;48.352;10.926;2024-02-14T07:52:28;0.73;;;0.47;;
62957;SDS011;49056;48.352;10.926;2024-02-14T07:57:48;0.15;;;0.15;;
62957;SDS011;49056;48.352;10.926;2024-02-14T08:03:08;0.57;;;0.40;;
62957;SDS011;49056;48.352;10.926;2024-02-14T08:08:29;1.80;;;0.67;;
62957;SDS011;49056;48.352;10.926;2024-02-14T08:13:49;0.93;;;0.63;;
62957;SDS011;49056;48.352;10.926;2024-02-14T08:19:10;0.62;;;0.45;;
62957;SDS011;49056;48.352;10.926;2024-02-14T08:24:31;0.30;;;0.30;;
62957;SDS011;49056;48.352;10.926;2024-02-14T08:29:51;0.25;;;0.25;;
62957;SDS011;49056;48.352;10.926;2024-02-14T08:35:11;0.98;;;0.20;;
62957;SDS011;49056;48.352;10.926;2024-02-14T08:40:34;0.28;;;0.20;;
62957;SDS011;49056;48.352;10.926;2024-02-14T08:45:54;0.25;;;0.17;;
62957;SDS011;49056;48.352;10.926;2024-02-14T08:51:15;0.52;;;0.30;;
62957;SDS011;49056;48.352;10.926;2024-02-14T08:56:36;0.68;;;0.28;;
62957;SDS011;49056;48.352;10.926;2024-02-14T09:01:56;0.82;;;0.47;;
62957;SDS011;49056;48.352;10.926;2024-02-14T09:07:17;0.20;;;0.10;;
62957;SDS011;49056;48.352;10.926;2024-02-14T09:12:37;0.40;;;0.40;;
62957;SDS011;49056;48.352;10.926;2024-02-14T09:17:57;0.65;;;0.30;;
62957;SDS011;49056;48.352;10.926;2024-02-14T09:23:20;0.00;;;0.00;;
62957;SDS011;49056;48.352;10.926;2024-02-14T09:28:42;0.35;;;0.25;;
62957;SDS011;49056;48.352;10.926;2024-02-14T09:34:03;0.55;;;0.20;;
62957;SDS011;49056;48.352;10.926;2024-02-14T09:39:23;0.55;;;0.35;;
62957;SDS011;49056;48.352;10.926;2024-02-14T09:44:43;1.20;;;0.45;;
62957;SDS011;49056;48.352;10.926;2024-02-14T09:50:04;0.52;;;0.20;;
62957;SDS011;49056;48.352;10.926;2024-02-14T09:55:26;1.92;;;0.50;;
62957;SDS011;49056;48.352;10.926;2024-02-14T10:00:46;0.50;;;0.30;;
62957;SDS011;49056;48.352;10.926;2024-02-14T10:06:07;0.50;;;0.43;;
62957;SDS011;49056;48.352;10.926;2024-02-14T10:11:27;0.20;;;0.20;;
62957;SDS011;49056;48.352;10.926;2024-02-14T10:16:47;0.30;;;0.30;;
62957;SDS011;49056;48.352;10.926;2024-02-14T10:22:07;0.30;;;0.20;;
62957;SDS011;49056;48.352;10.926;2024-02-14T10:27:28;0.95;;;0.60;;
62957;SDS011;49056;48.352;10.926;2024-02-14T10:32:49;0.10;;;0.10;;
62957;SDS011;49056;48.352;10.926;2024-02-14T10:38:10;0.47;;;0.37;;
62957;SDS011;49056;48.352;10.926;2024-02-14T10:43:31;0.25;;;0.20;;
62957;SDS011;49056;48.352;10.926;2024-02-14T10:49:03;0.10;;;0.10;;
62957;SDS011;49056;48.352;10.926;2024-02-14T10:54:24;0.40;;;0.20;;
62957;SDS011;49056;48.352;10.926;2024-02-14T10:59:44;0.10;;;0.10;;
62957;SDS011;49056;48.352;10.926;2024-02-14T11:05:11;0.52;;;0.30;;
62957;SDS011;49056;48.352;10.926;2024-02-14T11:10:31;0.68;;;0.30;;
62957;SDS011;49056;48.352;10.926;2024-02-14T11:15:57;0.40;;;0.25;;
62957;SDS011;49056;48.352;10.926;2024-02-14T11:21:19;0.40;;;0.22;;
62957;SDS011;49056;48.352;10.926;2024-02-14T11:26:45;0.17;;;0.17;;
62957;SDS011;49056;48.352;10.926;2024-02-14T11:32:06;1.33;;;0.30;;
62957;SDS011;49056;48.352;10.926;2024-02-14T11:37:29;0.50;;;0.32;;
62957;SDS011;49056;48.352;10.926;2024-02-14T11:42:49;0.30;;;0.30;;
62957;SDS011;49056;48.352;10.926;2024-02-14T11:48:13;0.22;;;0.10;;
62957;SDS011;49056;48.352;10.926;2024-02-14T11:53:33;0.37;;;0.20;;
62957;SDS011;49056;48.352;10.926;2024-02-14T11:58:53;0.17;;;0.13;;
62957;SDS011;49056;48.352;10.926;2024-02-14T12:04:15;0.55;;;0.40;;
62957;SDS011;49056;48.352;10.926;2024-02-14T12:09:36;0.75;;;0.22;;
62957;SDS011;49056;48.352;10.926;2024-02-14T12:14:56;0.32;;;0.20;;
62957;SDS011;49056;48.352;10.926;2024-02-14T12:20:21;1.58;;;0.70;;
62957;SDS011;49056;48.352;10.926;2024-02-14T12:25:41;2.05;;;0.50;;
62957;SDS011;49056;48.352;10.926;2024-02-14T12:31:01;0.47;;;0.10;;
62957;SDS011;49056;48.352;10.926;2024-02-14T12:36:22;0.93;;;0.20;;
62957;SDS011;49056;48.352;10.926;2024-02-14T12:41:42;0.80;;;0.20;;
62957;SDS011;49056;48.352;10.926;2024-02-14T12:47:03;0.60;;;0.20;;
62957;SDS011;49056;48.352;10.926;2024-02-14T12:52:23;1.60;;;0.10;;
62957;SDS011;49056;48.352;10.926;2024-02-14T12:57:43;0.20;;;0.10;;
62957;SDS011;49056;48.352;10.926;2024-02-14T13:03:04;0.50;;;0.20;;
62957;SDS011;49056;48.352;10.926;2024-02-14T13:08:25;0.82;;;0.50;;
62957;SDS011;49056;48.352;10.926;2024-02-14T13:13:45;0.13;;;0.00;;
62957;SDS011;49056;48.352;10.926;2024-02-14T13:19:05;0.20;;;0.20;;
62957;SDS011;49056;48.352;10.926;2024-02-14T13:24:26;0.20;;;0.20;;
62957;SDS011;49056;48.352;10.926;2024-02-14T13:29:46;0.93;;;0.20;;
62957;SDS011;49056;48.352;10.926;2024-02-14T13:35:07;1.60;;;0.40;;
62957;SDS011;49056;48.352;10.926;2024-02-14T13:40:28;0.28;;;0.10;;
62957;SDS011;49056;48.352;10.926;2024-02-14T13:45:48;0.15;;;0.15;;
62957;SDS011;49056;48.352;10.926;2024-02-14T13:51:10;0.47;;;0.15;;
62957;SDS011;49056;48.352;10.926;2024-02-14T13:56:30;0.40;;;0.30;;
62957;SDS011;49056;48.352;10.926;2024-02-14T14:01:51;0.35;;;0.13;;
62957;SDS011;49056;48.352;10.926;2024-02-14T14:07:11;0.10;;;0.10;;
62957;SDS011;49056;48.352;10.926;2024-02-14T14:12:32;1.08;;;0.28;;
62957;SDS011;49056;48.352;10.926;2024-02-14T14:17:52;0.32;;;0.10;;
62957;SDS011;49056;48.352;10.926;2024-02-14T14:23:12;0.30;;;0.20;;
62957;SDS011;49056;48.352;10.926;2024-02-14T14:28:33;0.20;;;0.15;;
62957;SDS011;49056;48.352;10.926;2024-02-14T14:33:53;0.50;;;0.32;;
62957;SDS011;49056;48.352;10.926;2024-02-14T14:39:14;0.30;;;0.20;;
62957;SDS011;49056;48.352;10.926;2024-02-14T14:44:34;0.50;;;0.27;;
62957;SDS011;49056;48.352;10.926;2024-02-14T14:49:55;0.10;;;0.10;;
62957;SDS011;49056;48.352;10.926;2024-02-14T14:55:15;0.47;;;0.13;;
62957;SDS011;49056;48.352;10.926;2024-02-14T15:00:35;0.10;;;0.10;;
62957;SDS011;49056;48.352;10.926;2024-02-14T15:05:56;0.32;;;0.20;;
62957;SDS011;49056;48.352;10.926;2024-02-14T15:11:17;0.10;;;0.10;;
62957;SDS011;49056;48.352;10.926;2024-02-14T15:16:38;0.10;;;0.10;;
62957;SDS011;49056;48.352;10.926;2024-02-14T15:21:59;0.50;;;0.20;;
62957;SDS011;49056;48.352;10.926;2024-02-14T15:27:23;0.30;;;0.25;;
62957;SDS011;49056;48.352;10.926;2024-02-14T15:32:43;0.10;;;0.08;;
62957;SDS011;49056;48.352;10.926;2024-02-14T15:38:23;0.22;;;0.20;;
62957;SDS011;49056;48.352;10.926;2024-02-14T15:43:43;0.10;;;0.10;;
62957;SDS011;49056;48.352;10.926;2024-02-14T15:49:05;0.45;;;0.20;;
62957;SDS011;49056;48.352;10.926;2024-02-14T15:54:25;0.37;;;0.10;;
62957;SDS011;49056;48.352;10.926;2024-02-14T15:59:46;0.20;;;0.10;;
62957;SDS011;49056;48.352;10.926;2024-02-14T16:05:07;0.75;;;0.20;;
62957;SDS011;49056;48.352;10.926;2024-02-14T16:10:29;0.28;;;0.15;;
62957;SDS011;49056;48.352;10.926;2024-02-14T16:15:49;0.20;;;0.20;;
62957;SDS011;49056;48.352;10.926;2024-02-14T16:21:09;0.53;;;0.27;;
62957;SDS011;49056;48.352;10.926;2024-02-14T16:26:30;0.45;;;0.22;;
62957;SDS011;49056;48.352;10.926;2024-02-14T16:31:50;0.47;;;0.30;;
62957;SDS011;49056;48.352;10.926;2024-02-14T16:37:10;0.25;;;0.17;;
62957;SDS011;49056;48.352;10.926;2024-02-14T16:42:36;0.10;;;0.08;;
62957;SDS011;49056;48.352;10.926;2024-02-14T16:47:57;0.30;;;0.20;;
62957;SDS011;49056;48.352;10.926;2024-02-14T16:53:17;0.43;;;0.20;;
62957;SDS011;49056;48.352;10.926;2024-02-14T16:58:37;0.08;;;0.00;;
62957;SDS011;49056;48.352;10.926;2024-02-14T17:03:58;0.32;;;0.20;;
62957;SDS011;49056;48.352;10.926;2024-02-14T17:09:18;0.25;;;0.20;;
62957;SDS011;49056;48.352;10.926;2024-02-14T17:14:38;0.20;;;0.00;;
62957;SDS011;49056;48.352;10.926;2024-02-14T17:19:59;0.27;;;0.10;;
62957;SDS011;49056;48.352;10.926;2024-02-14T17:25:19;0.93;;;0.40;;
62957;SDS011;49056;48.352;10.926;2024-02-14T17:30:39;0.60;;;0.20;;
62957;SDS011;49056;48.352;10.926;2024-02-14T17:36:00;0.65;;;0.30;;
62957;SDS011;49056;48.352;10.926;2024-02-14T17:41:20;0.32;;;0.20;;
62957;SDS011;49056;48.352;10.926;2024-02-14T17:46:41;1.02;;;0.30;;
62957;SDS011;49056;48.352;10.926;2024-02-14T17:52:03;0.57;;;0.20;;
62957;SDS011;49056;48.352;10.926;2024-02-14T17:57:23;0.73;;;0.30;;
62957;SDS011;49056;48.352;10.926;2024-02-14T18:02:44;0.40;;;0.20;;
62957;SDS011;49056;48.352;10.926;2024-02-14T18:08:05;0.55;;;0.30;;
62957;SDS011;49056;48.352;10.926;2024-02-14T18:13:25;1.30;;;0.20;;
62957;SDS011;49056;48.352;10.926;2024-02-14T18:18:46;1.40;;;0.73;;
62957;SDS011;49056;48.352;10.926;2024-02-14T18:24:06;0.50;;;0.40;;
62957;SDS011;49056;48.352;10.926;2024-02-14T18:29:27;0.70;;;0.60;;
62957;SDS011;49056;48.352;10.926;2024-02-14T18:34:47;1.55;;;0.50;;
62957;SDS011;49056;48.352;10.926;2024-02-14T18:40:07;0.60;;;0.30;;
62957;SDS011;49056;48.352;10.926;2024-02-14T18:45:28;0.50;;;0.30;;
62957;SDS011;49056;48.352;10.926;2024-02-14T18:50:48;0.70;;;0.40;;
62957;SDS011;49056;48.352;10.926;2024-02-14T18:56:09;0.88;;;0.68;;
62957;SDS011;49056;48.352;10.926;2024-02-14T19:01:29;0.88;;;0.40;;
62957;SDS011;49056;48.352;10.926;2024-02-14T19:06:49;0.50;;;0.33;;
62957;SDS011;49056;48.352;10.926;2024-02-14T19:12:10;0.65;;;0.35;;
62957;SDS011;49056;48.352;10.926;2024-02-14T19:17:30;0.80;;;0.35;;
62957;SDS011;49056;48.352;10.926;2024-02-14T19:22:52;0.73;;;0.40;;
62957;SDS011;49056;48.352;10.926;2024-02-14T19:28:12;0.47;;;0.37;;
62957;SDS011;49056;48.352;10.926;2024-02-14T19:33:34;1.05;;;0.40;;
62957;SDS011;49056;48.352;10.926;2024-02-14T19:38:54;0.88;;;0.47;;
62957;SDS011;49056;48.352;10.926;2024-02-14T19:44:14;1.87;;;0.60;;
62957;SDS011;49056;48.352;10.926;2024-02-14T19:49:35;1.00;;;0.43;;
62957;SDS011;49056;48.352;10.926;2024-02-14T19:54:55;0.93;;;0.40;;
62957;SDS011;49056;48.352;10.926;2024-02-14T20:00:16;0.88;;;0.35;;
62957;SDS011;49056;48.352;10.926;2024-02-14T20:05:37;1.70;;;0.73;;
62957;SDS011;49056;48.352;10.926;2024-02-14T20:10:58;1.83;;;0.68;;
62957;SDS011;49056;48.352;10.926;2024-02-14T20:16:19;0.65;;;0.35;;
62957;SDS011;49056;48.352;10.926;2024-02-14T20:21:40;0.88;;;0.50;;
62957;SDS011;49056;48.352;10.926;2024-02-14T20:27:00;0.90;;;0.45;;
62957;SDS011;49056;48.352;10.926;2024-02-14T20:32:20;0.95;;;0.47;;
62957;SDS011;49056;48.352;10.926;2024-02-14T20:37:41;0.50;;;0.35;;
62957;SDS011;49056;48.352;10.926;2024-02-14T20:43:02;0.73;;;0.35;;
62957;SDS011;49056;48.352;10.926;2024-02-14T20:48:22;0.62;;;0.45;;
62957;SDS011;49056;48.352;10.926;2024-02-14T20:53:44;0.60;;;0.43;;
62957;SDS011;49056;48.352;10.926;2024-02-14T20:59:04;0.57;;;0.43;;
62957;SDS011;49056;48.352;10.926;2024-02-14T21:04:26;0.65;;;0.40;;
62957;SDS011;49056;48.352;10.926;2024-02-14T21:09:46;0.57;;;0.35;;
62957;SDS011;49056;48.352;10.926;2024-02-14T21:15:06;1.12;;;0.50;;
62957;SDS011;49056;48.352;10.926;2024-02-14T21:20:27;2.22;;;0.90;;
62957;SDS011;49056;48.352;10.926;2024-02-14T21:25:49;2.08;;;0.88;;
62957;SDS011;49056;48.352;10.926;2024-02-14T21:31:10;1.57;;;0.57;;
62957;SDS011;49056;48.352;10.926;2024-02-14T21:36:30;2.00;;;0.75;;
62957;SDS011;49056;48.352;10.926;2024-02-14T21:41:52;0.80;;;0.50;;
62957;SDS011;49056;48.352;10.926;2024-02-14T21:47:12;0.80;;;0.20;;
62957;SDS011;49056;48.352;10.926;2024-02-14T21:52:34;0.57;;;0.40;;
62957;SDS011;49056;48.352;10.926;2024-02-14T21:57:55;1.05;;;0.57;;
62957;SDS011;49056;48.352;10.926;2024-02-14T22:03:16;0.40;;;0.30;;
62957;SDS011;49056;48.352;10.926;2024-02-14T22:08:36;1.00;;;0.45;;
62957;SDS011;49056;48.352;10.926;2024-02-14T22:13:56;0.68;;;0.40;;
62957;SDS011;49056;48.352;10.926;2024-02-14T22:19:17;0.90;;;0.52;;
62957;SDS011;49056;48.352;10.926;2024-02-14T22:24:37;0.55;;;0.40;;
62957;SDS011;49056;48.352;10.926;2024-02-14T22:29:57;0.70;;;0.60;;
62957;SDS011;49056;48.352;10.926;2024-02-14T22:35:18;0.32;;;0.30;;
62957;SDS011;49056;48.352;10.926;2024-02-14T22:40:39;2.07;;;0.80;;
62957;SDS011;49056;48.352;10.926;2024-02-14T22:45:59;1.05;;;0.50;;
62957;SDS011;49056;48.352;10.926;2024-02-14T22:51:19;0.62;;;0.37;;
62957;SDS011;49056;48.352;10.926;2024-02-14T22:56:40;0.77;;;0.55;;
62957;SDS011;49056;48.352;10.926;2024-02-14T23:02:00;0.90;;;0.50;;
62957;SDS011;49056;48.352;10.926;2024-02-14T23:07:20;1.60;;;0.62;;
62957;SDS011;49056;48.352;10.926;2024-02-14T23:12:44;0.57;;;0.40;;
62957;SDS011;49056;48.352;10.926;2024-02-14T23:18:04;0.50;;;0.30;;
62957;SDS011;49056;48.352;10.926;2024-02-14T23:23:26;1.27;;;0.50;;
62957;SDS011;49056;48.352;10.926;2024-02-14T23:28:46;0.90;;;0.55;;
62957;SDS011;49056;48.352;10.926;2024-02-14T23:34:06;1.55;;;0.57;;
62957;SDS011;49056;48.352;10.926;2024-02-14T23:39:27;1.05;;;0.40;;
62957;SDS011;49056;48.352;10.926;2024-02-14T23:44:47;0.90;;;0.43;;
62957;SDS011;49056;48.352;10.926;2024-02-14T23:50:07;1.02;;;0.50;;
62957;SDS011;49056;48.352;10.926;2024-02-14T23:55:32;0.75;;;0.37;;
